createdAt,value
2023-02-01T00:01:35.718Z,1006.88
2023-02-01T00:07:20.445Z,1006.8
2023-02-01T00:13:04.179Z,1006.84
2023-02-01T00:18:48.806Z,1006.74
2023-02-01T00:24:32.710Z,1006.72
2023-02-01T00:30:17.448Z,1006.79
2023-02-01T00:36:02.867Z,1006.67
2023-02-01T00:41:46.813Z,1006.43
2023-02-01T00:47:30.506Z,1006.32
2023-02-01T00:53:14.366Z,1006.4
2023-02-01T00:58:58.381Z,1006.48
2023-02-01T01:04:42.117Z,1006.45
2023-02-01T01:10:26.030Z,1006.25
2023-02-01T01:16:10.857Z,1006.38
2023-02-01T01:21:55.751Z,1006.39
2023-02-01T01:27:39.414Z,1006.59
2023-02-01T01:33:23.396Z,1006.53
2023-02-01T01:39:07.069Z,1006.41
2023-02-01T01:45:02.288Z,1006.32
2023-02-01T01:50:48.746Z,1006.3
2023-02-01T01:56:33.753Z,1006.47
2023-02-01T02:02:18.018Z,1006.59
2023-02-01T02:08:02.522Z,1006.68
2023-02-01T02:13:48.084Z,1006.71
2023-02-01T02:19:42.990Z,1006.7
2023-02-01T02:25:39.150Z,1006.7
2023-02-01T02:31:35.915Z,1006.71
2023-02-01T02:37:25.221Z,1006.75
2023-02-01T02:43:13.895Z,1006.71
2023-02-01T02:49:02.662Z,1006.68
2023-02-01T02:54:48.594Z,1006.69
2023-02-01T03:00:34.564Z,1006.72
2023-02-01T03:06:19.469Z,1006.74
2023-02-01T03:12:06.112Z,1006.8
2023-02-01T03:17:52.217Z,1006.78
2023-02-01T03:23:37.822Z,1006.65
2023-02-01T03:29:26.017Z,1006.68
2023-02-01T03:35:10.416Z,1006.69
2023-02-01T03:40:57.882Z,1006.66
2023-02-01T03:46:45.219Z,1006.61
2023-02-01T03:52:30.592Z,1006.64
2023-02-01T03:58:15.458Z,1006.6
2023-02-01T04:03:59.528Z,1006.45
2023-02-01T04:09:43.338Z,1006.38
2023-02-01T04:15:27.172Z,1006.46
2023-02-01T04:21:11.135Z,1006.57
2023-02-01T04:26:55.034Z,1006.64
2023-02-01T04:32:42.294Z,1006.78
2023-02-01T04:38:26.568Z,1006.87
2023-02-01T04:44:14.713Z,1006.78
2023-02-01T04:49:58.635Z,1006.82
2023-02-01T04:55:42.550Z,1006.82
2023-02-01T05:01:26.499Z,1006.89
2023-02-01T05:07:10.617Z,1006.9
2023-02-01T05:12:54.364Z,1006.94
2023-02-01T05:18:38.243Z,1006.94
2023-02-01T05:24:22.150Z,1007.06
2023-02-01T05:30:06.835Z,1007.08
2023-02-01T05:35:50.630Z,1006.99
2023-02-01T05:41:34.577Z,1006.99
2023-02-01T05:47:18.473Z,1006.89
2023-02-01T05:53:02.314Z,1006.89
2023-02-01T05:58:46.151Z,1006.83
2023-02-01T06:04:30.165Z,1006.85
2023-02-01T06:10:14.989Z,1006.9
2023-02-01T06:15:58.808Z,1006.95
2023-02-01T06:21:42.733Z,1006.98
2023-02-01T06:27:26.609Z,1007.06
2023-02-01T06:33:10.386Z,1007.09
2023-02-01T06:38:54.114Z,1007.03
2023-02-01T06:44:37.869Z,1007.01
2023-02-01T06:50:22.671Z,1006.99
2023-02-01T06:56:08.225Z,1007.01
2023-02-01T07:01:52.120Z,1007.01
2023-02-01T07:07:36.115Z,1007.05
2023-02-01T07:13:19.983Z,1006.98
2023-02-01T07:19:08.372Z,1006.9
2023-02-01T07:24:52.113Z,1006.96
2023-02-01T07:30:35.963Z,1007.08
2023-02-01T07:36:20.595Z,1007.15
2023-02-01T07:42:04.691Z,1007.1
2023-02-01T07:47:53.213Z,1007.15
2023-02-01T07:53:37.412Z,1007.13
2023-02-01T07:59:21.319Z,1007.13
2023-02-01T08:05:05.374Z,1007.2
2023-02-01T08:10:49.168Z,1007.18
2023-02-01T08:16:33.394Z,1007.37
2023-02-01T08:22:17.297Z,1007.41
2023-02-01T08:28:01.282Z,1007.39
2023-02-01T08:33:45.679Z,1007.45
2023-02-01T08:39:29.533Z,1007.53
2023-02-01T08:45:13.905Z,1007.58
2023-02-01T08:50:57.694Z,1007.73
2023-02-01T08:56:41.702Z,1007.6
2023-02-01T09:02:25.660Z,1007.62
2023-02-01T09:08:09.947Z,1007.51
2023-02-01T09:13:53.773Z,1007.51
2023-02-01T09:19:37.579Z,1007.45
2023-02-01T09:25:23.012Z,1007.36
2023-02-01T09:31:07.748Z,1007.38
2023-02-01T09:36:51.971Z,1007.29
2023-02-01T09:42:44.957Z,1007.23
2023-02-01T09:48:32.648Z,1007.19
2023-02-01T09:54:18.152Z,1007.22
2023-02-01T10:00:04.562Z,1007.34
2023-02-01T10:06:08.309Z,1007.36
2023-02-01T10:11:57.821Z,1007.36
2023-02-01T10:17:49.409Z,1007.4
2023-02-01T10:23:43.664Z,1007.36
2023-02-01T10:29:31.230Z,1007.38
2023-02-01T10:35:17.649Z,1007.39
2023-02-01T10:41:04.665Z,1007.4
2023-02-01T10:46:48.435Z,1007.37
2023-02-01T10:52:36.755Z,1007.3
2023-02-01T10:58:21.974Z,1007.36
2023-02-01T11:04:06.972Z,1007.37
2023-02-01T11:09:54.873Z,1007.38
2023-02-01T11:15:38.739Z,1007.21
2023-02-01T11:21:23.415Z,1007.13
2023-02-01T11:27:18.732Z,1007.11
2023-02-01T11:33:14.148Z,1007.18
2023-02-01T11:39:05.063Z,1007.04
2023-02-01T11:44:49.270Z,1007.01
2023-02-01T11:50:40.141Z,1007.05
2023-02-01T11:56:28.180Z,1006.91
2023-02-01T12:02:22.319Z,1006.78
2023-02-01T12:08:16.582Z,1006.58
2023-02-01T12:14:05.925Z,1006.44
2023-02-01T12:19:58.639Z,1006.56
2023-02-01T12:25:49.986Z,1006.59
2023-02-01T12:31:43.784Z,1006.49
2023-02-01T12:37:38.098Z,1006.44
2023-02-01T12:43:28.823Z,1006.38
2023-02-01T12:49:15.915Z,1006.27
2023-02-01T12:55:02.859Z,1006.26
2023-02-01T13:00:51.618Z,1006.2
2023-02-01T13:06:38.530Z,1006.33
2023-02-01T13:12:23.917Z,1006.34
2023-02-01T13:18:08.787Z,1006.25
2023-02-01T13:23:54.059Z,1006.11
2023-02-01T13:29:39.605Z,1006.06
2023-02-01T13:35:34.054Z,1006.27
2023-02-01T13:41:25.295Z,1006.2
2023-02-01T13:47:14.581Z,1006.22
2023-02-01T13:52:59.867Z,1006.25
2023-02-01T13:58:45.124Z,1006.19
2023-02-01T14:04:40.536Z,1006.17
2023-02-01T14:10:35.990Z,1006.22
2023-02-01T14:16:20.347Z,1006.21
2023-02-01T14:22:10.690Z,1006.24
2023-02-01T14:27:55.280Z,1006.28
2023-02-01T14:33:43.325Z,1006.35
2023-02-01T14:39:28.776Z,1006.36
2023-02-01T14:45:25.750Z,1006.45
2023-02-01T14:51:13.027Z,1006.44
2023-02-01T14:56:57.068Z,1006.5
2023-02-01T15:02:41.446Z,1006.58
2023-02-01T15:08:30.072Z,1006.56
2023-02-01T15:14:17.030Z,1006.49
2023-02-01T15:20:01.862Z,1006.58
2023-02-01T15:25:53.989Z,1006.67
2023-02-01T15:31:39.494Z,1006.65
2023-02-01T15:37:24.408Z,1006.68
2023-02-01T15:43:13.796Z,1006.62
2023-02-01T15:48:57.981Z,1006.69
2023-02-01T15:54:44.874Z,1006.71
2023-02-01T16:00:30.852Z,1006.72
2023-02-01T16:06:19.864Z,1006.75
2023-02-01T16:12:04.857Z,1006.81
2023-02-01T16:17:48.689Z,1006.9
2023-02-01T16:23:33.519Z,1006.94
2023-02-01T16:29:17.327Z,1007
2023-02-01T16:35:01.845Z,1006.99
2023-02-01T16:40:46.508Z,1007.02
2023-02-01T16:46:34.048Z,1007
2023-02-01T16:52:23.312Z,1007.08
2023-02-01T16:58:07.807Z,1007.16
2023-02-01T17:03:51.735Z,1007.24
2023-02-01T17:09:35.791Z,1007.32
2023-02-01T17:15:20.303Z,1007.34
2023-02-01T17:21:06.601Z,1007.39
2023-02-01T17:26:50.837Z,1007.37
2023-02-01T17:32:35.167Z,1007.41
2023-02-01T17:38:20.715Z,1007.51
2023-02-01T17:44:04.622Z,1007.51
2023-02-01T17:49:48.772Z,1007.53
2023-02-01T17:55:34.826Z,1007.57
2023-02-01T18:01:19.536Z,1007.68
2023-02-01T18:07:04.744Z,1007.72
2023-02-01T18:12:48.700Z,1007.71
2023-02-01T18:18:32.534Z,1007.7
2023-02-01T18:24:17.822Z,1007.71
2023-02-01T18:30:02.863Z,1007.73
2023-02-01T18:35:47.210Z,1007.68
2023-02-01T18:41:33.124Z,1007.77
2023-02-01T18:47:17.543Z,1007.77
2023-02-01T18:53:02.823Z,1007.77
2023-02-01T18:58:47.026Z,1007.73
2023-02-01T19:04:30.898Z,1007.7
2023-02-01T19:10:17.436Z,1007.65
2023-02-01T19:16:06.459Z,1007.65
2023-02-01T19:21:51.231Z,1007.71
2023-02-01T19:27:35.454Z,1007.69
2023-02-01T19:33:19.400Z,1007.68
2023-02-01T19:39:03.111Z,1007.64
2023-02-01T19:44:46.819Z,1007.64
2023-02-01T19:50:30.570Z,1007.66
2023-02-01T19:56:14.473Z,1007.66
2023-02-01T20:01:58.264Z,1007.69
2023-02-01T20:07:42.535Z,1007.84
2023-02-01T20:13:26.434Z,1007.75
2023-02-01T20:19:10.362Z,1007.74
2023-02-01T20:24:55.293Z,1007.73
2023-02-01T20:30:40.277Z,1007.8
2023-02-01T20:36:24.179Z,1007.71
2023-02-01T20:42:08.324Z,1007.76
2023-02-01T20:47:53.708Z,1007.75
2023-02-01T20:53:37.786Z,1007.73
2023-02-01T20:59:22.190Z,1007.72
2023-02-01T21:05:06.666Z,1007.69
2023-02-01T21:10:59.947Z,1007.64
2023-02-01T21:16:43.840Z,1007.71
2023-02-01T21:22:27.806Z,1007.66
2023-02-01T21:28:12.135Z,1007.68
2023-02-01T21:33:56.211Z,1007.79
2023-02-01T21:39:40.293Z,1007.84
2023-02-01T21:45:24.789Z,1007.89
2023-02-01T21:51:09.534Z,1008.03
2023-02-01T21:56:53.492Z,1007.97
2023-02-01T22:02:37.832Z,1008
2023-02-01T22:08:22.321Z,1007.99
2023-02-01T22:14:06.602Z,1008.08
2023-02-01T22:19:50.649Z,1008.02
2023-02-01T22:25:34.756Z,1008.05
2023-02-01T22:31:20.604Z,1008.11
2023-02-01T22:37:04.613Z,1008.11
2023-02-01T22:42:48.497Z,1008.17
2023-02-01T22:48:34.988Z,1008.21
2023-02-01T22:54:22.034Z,1008.25
2023-02-01T23:00:07.261Z,1008.28
2023-02-01T23:05:51.164Z,1008.38
2023-02-01T23:11:34.893Z,1008.28
2023-02-01T23:17:19.804Z,1008.32
2023-02-01T23:23:03.699Z,1008.4
2023-02-01T23:28:47.648Z,1008.37
2023-02-01T23:34:31.422Z,1008.37
2023-02-01T23:40:16.112Z,1008.41
2023-02-01T23:46:02.365Z,1008.33
2023-02-01T23:51:46.485Z,1008.26
2023-02-01T23:57:30.386Z,1008.3
